Flight Track Log - Related Links

Times and Time Zones

All times are in EDT time to prevent confusion due to time zone crossing. See the SWA101 flight status page for this flight to view local times or setup timezone preferences in your user account.

Time Position Orientation Groundspeed Altitude Reporting Facility
EDT Latitude Longitude Course Direction KTS MPH feet Rate Location/Type
Thu 12:42:58 AM 39.9167 -104.6667 210° Southwest 196 226 6,700  Level Denver TRACON
Thu 12:44:04 AM 39.8833 -104.5833 118° Southeast 242 278 9,300 2,619 Climbing Denver TRACON
Thu 12:45:04 AM 39.8500 -104.5000 117° Southeast 268 308 12,200 2,723 Climbing Denver TRACON
Thu 12:46:14 AM 39.7717 -104.4786 168° South 289 333 15,200 1,832 Climbing Denver Center
Thu 12:47:15 AM 39.6817 -104.5519 212° Southwest 362 417 16,200 1,672 Climbing Denver Center
Thu 12:48:00 AM 39.4855 -104.4984 210° Southwest  Level FlightAware
Thu 12:48:16 AM 39.5881 -104.6414 216° Southwest 417 480 18,600  Level Denver Center
Thu 12:49:17 AM 39.4811 -104.7244 211° Southwest 454 522 20,900 2,164 Climbing Denver Center
Thu 12:50:18 AM 39.3672 -104.8097 210° Southwest 475 547 23,000 1,869 Climbing Denver Center
Thu 12:51:19 AM 39.2589 -104.8861 209° Southwest 476 548 24,700 1,623 Climbing Denver Center
Thu 12:52:20 AM 39.1356 -104.9778 210° Southwest 519 597 26,300 1,791 Climbing Denver Center
Thu 12:53:33 AM 39.0119 -105.0653 209° Southwest 509 586 28,700 2,463 Climbing Denver Center
Thu 12:54:34 AM 38.8667 -105.1697 209° Southwest 500 575 31,800 2,557 Climbing Denver Center
Thu 12:55:35 AM 38.7239 -105.2722 209° Southwest 491 565 33,900 1,574 Climbing Denver Center
Thu 12:56:36 AM 38.6086 -105.3708 214° Southwest 499 574 35,000 738 Climbing Denver Center
Thu 12:57:37 AM 38.5086 -105.4914 223° Southwest 496 571 35,400 738 Climbing Denver Center
Thu 12:58:38 AM 38.4069 -105.6114 223° Southwest 497 572 36,500 1,190 Climbing Denver Center
Thu 12:59:38 AM 38.3008 -105.7361 223° Southwest 500 575 37,800 744 Climbing Denver Center
Thu 01:00:39 AM 38.2014 -105.8511 222° Southwest 504 580 38,000 98 Climbing Denver Center
Thu 01:01:40 AM 38.1025 -105.9661 222° Southwest 504 580 38,000  Level Denver Center
Thu 01:02:41 AM 37.9869 -106.1000 222° Southwest 503 579 38,000  Level Denver Center
Thu 01:03:42 AM 37.8875 -106.2161 223° Southwest 507 583 38,000  Level Denver Center
Thu 01:04:42 AM 37.7778 -106.3406 222° Southwest 510 587 38,000  Level Denver Center
Thu 01:05:43 AM 37.6769 -106.4558 222° Southwest 509 586 38,000  Level Denver Center
Thu 01:06:44 AM 37.5592 -106.5928 223° Southwest 513 590 38,000  Level Denver Center
Thu 01:07:44 AM 37.4558 -106.7075 221° Southwest 515 593 38,000  Level Denver Center
Thu 01:08:45 AM 37.3525 -106.8250 222° Southwest 520 598 38,000  Level Denver Center
Thu 01:09:46 AM 37.2325 -106.9594 222° Southwest 520 598 38,000  Level Denver Center
Thu 01:10:46 AM 37.1303 -107.0744 222° Southwest 517 595 38,000  Level Denver Center
Thu 01:11:47 AM 37.0275 -107.1892 222° Southwest 517 595 38,000  Level Denver Center
Thu 01:12:48 AM 36.9239 -107.3028 221° Southwest 517 595 38,000  Level Denver Center
Thu 01:13:48 AM 36.8058 -107.4358 222° Southwest 514 592 38,000  Level Denver Center
Thu 01:14:49 AM 36.7031 -107.5483 221° Southwest 512 589 38,000  Level Denver Center
Thu 01:15:50 AM 36.6014 -107.6614 222° Southwest 511 588 38,000  Level Denver Center
Thu 01:16:50 AM 36.4828 -107.7917 221° Southwest 508 585 38,000  Level Denver Center
Thu 01:17:51 AM 36.3803 -107.9017 221° Southwest 507 583 38,000  Level Denver Center
Thu 01:18:21 AM 36.3311 -107.9581 223° Southwest 504 580 38,000  Level Albuquerque Center
Thu 01:19:22 AM 36.2136 -108.0861 221° Southwest 501 577 38,000  Level Albuquerque Center
Thu 01:19:52 AM 36.1631 -108.1392 220° Southwest 500 575 38,000  Level Denver Center
Thu 01:20:23 AM 36.1128 -108.1939 221° Southwest 499 574 38,000  Level Albuquerque Center
Thu 01:21:23 AM 36.0131 -108.3011 221° Southwest 495 570 38,000 -149 Level Albuquerque Center
Thu 01:22:24 AM 35.9194 -108.4172 225° Southwest 495 570 37,700 -492 Descending Albuquerque Center
Thu 01:23:25 AM 35.8075 -108.5528 225° Southwest 498 573 37,000 -347 Descending Albuquerque Center
Thu 01:24:25 AM 35.7106 -108.6708 225° Southwest 505 581 37,000  Level Albuquerque Center
Thu 01:25:26 AM 35.6133 -108.7883 225° Southwest 506 582 37,000  Level Albuquerque Center
Thu 01:26:26 AM 35.5172 -108.9044 225° Southwest 506 582 37,000  Level Albuquerque Center
Thu 01:27:27 AM 35.4036 -109.0400 224° Southwest 507 583 37,000  Level Albuquerque Center
Thu 01:28:27 AM 35.3061 -109.1569 224° Southwest 508 585 37,000  Level Albuquerque Center
Thu 01:29:28 AM 35.2097 -109.2711 224° Southwest 506 582 37,000  Level Albuquerque Center
Thu 01:30:29 AM 35.0969 -109.4056 224° Southwest 506 582 37,000  Level Albuquerque Center
Thu 01:31:29 AM 35.0000 -109.5189 224° Southwest 504 580 37,000 -347 Level Albuquerque Center
Thu 01:32:30 AM 34.9044 -109.6311 224° Southwest 500 575 36,300 -496 Descending Albuquerque Center
Thu 01:33:30 AM 34.7925 -109.7625 224° Southwest 500 575 36,000 -298 Descending Albuquerque Center
Thu 01:34:31 AM 34.7217 -109.9003 238° Southwest 495 570 35,700 -645 Descending Albuquerque Center
Thu 01:35:31 AM 34.6533 -110.0394 239° Southwest 498 573 34,700 -942 Descending Albuquerque Center
Thu 01:36:32 AM 34.5856 -110.1822 240° Southwest 504 580 33,800 -1,091 Descending Albuquerque Center
Thu 01:37:32 AM 34.5042 -110.3461 239° Southwest 506 582 32,500 -2,182 Descending Albuquerque Center
Thu 01:38:33 AM 34.4353 -110.4833 239° Southwest 506 582 29,400 -2,926 Descending Albuquerque Center
Thu 01:39:33 AM 34.3653 -110.6278 240° Southwest 499 574 26,600 -2,727 Descending Albuquerque Center
Thu 01:40:34 AM 34.2956 -110.7633 238° Southwest 481 554 23,900 -2,579 Descending Albuquerque Center
Thu 01:41:34 AM 34.2272 -110.8944 238° Southwest 467 537 21,400 -2,400 Descending Albuquerque Center
Thu 01:42:34 AM 34.1639 -111.0208 239° Southwest 448 516 19,100 -1,884 Descending Albuquerque Center
Thu 01:43:35 AM 34.0964 -111.1294 233° Southwest 413 475 17,600 -1,736 Descending Albuquerque Center
Thu 01:44:35 AM 34.0231 -111.2228 227° Southwest 388 447 15,600 -1,983 Descending Albuquerque Center
Thu 01:45:36 AM 33.9514 -111.3164 227° Southwest 380 437 13,600 -1,686 Descending Albuquerque Center
Thu 01:46:36 AM 33.8803 -111.4050 226° Southwest 366 421 12,200 -1,339 Descending Albuquerque Center
Thu 01:47:37 AM 33.8044 -111.4714 216° Southwest 338 389 10,900 -1,388 Descending Albuquerque Center
Thu 01:48:37 AM 33.7336 -111.5322 216° Southwest 314 361 9,400 -1,200 Descending Albuquerque Center
Thu 01:49:37 AM 33.6661 -111.5903 216° Southwest 299 344 8,500 -1,041 Descending Albuquerque Center
Thu 01:50:38 AM 33.6036 -111.6475 217° Southwest 285 328 7,300 -1,289 Descending Albuquerque Center
Thu 01:51:38 AM 33.5450 -111.7081 221° Southwest 278 320 5,900 -1,190 Descending Albuquerque Center
Thu 01:52:39 AM 33.4867 -111.7675 220° Southwest 274 315 4,900 -992 Descending Albuquerque Center
Thu 01:53:39 AM 33.4531 -111.8261 236° Southwest 223 257 3,900 -1,222 Descending Albuquerque Center
Thu 01:54:27 AM 33.4333 -111.8833 248° West 183 211 2,700 -1,000 Descending Phoenix TRACON
Thu 01:55:27 AM 33.4333 -111.9333 270° West 143 165 2,100 -600 Descending Phoenix TRACON
Thu 01:56:27 AM 33.4333 -111.9667 270° West 129 148 1,500 -600 Descending Phoenix TRACON

Login

Don't have an account? Register now (free) for customized features, flight alerts, and more!